Angwin, California
Current Conditions -  °F | °C
As of 7:53 AM on Saturday 22 Nov 2014 (Local Time) from KSTS Reporting Station
Overcast Overcast  
Wind Chill: 62°   Ceiling: 2300
Heat Index: 62°   Visibility: 10mi
Dew Point: 61°   Wind: 6mph
Humidity: 96%   Direction: 200°SSW
Pressure: 30.01"   Gusts: NA
Location:  38.58°N, 122.45°W
Report Text: KSTS 221553Z 20005KT 10SM FEW001 SCT012 OVC023 17/16 A3001 RMK AO2 RAE40 SLP157 P0000 T01670161
Loading
Personal Weather Stations






























Interactive Weather Map New forecast layout! Learn more

10-Day Weather Forecast

Advertisements
Track Severe Weather on mobile